createdAt,value
2022-11-20T00:01:33.102Z,46.50
2022-11-20T00:04:01.158Z,42.20
2022-11-20T00:06:29.725Z,44.00
2022-11-20T00:08:59.353Z,40.90
2022-11-20T00:11:28.491Z,43.10
2022-11-20T00:13:58.343Z,38.10
2022-11-20T00:16:28.617Z,44.50
2022-11-20T00:18:56.671Z,45.60
2022-11-20T00:21:29.656Z,41.60
2022-11-20T00:23:58.628Z,41.90
2022-11-20T00:26:29.105Z,44.20
2022-11-20T00:28:59.421Z,44.60
2022-11-20T00:31:28.579Z,46.70
2022-11-20T00:33:56.739Z,40.80
2022-11-20T00:36:26.918Z,37.50
2022-11-20T00:38:59.265Z,39.30
2022-11-20T00:41:29.100Z,45.50
2022-11-20T00:43:57.660Z,45.90
2022-11-20T00:46:27.862Z,47.00
2022-11-20T00:48:56.095Z,47.70
2022-11-20T00:51:26.615Z,42.00
2022-11-20T00:53:57.958Z,42.10
2022-11-20T00:56:26.068Z,40.20
2022-11-20T00:58:53.812Z,41.10
2022-11-20T01:02:06.511Z,40.80
2022-11-20T01:04:34.980Z,42.40
2022-11-20T01:07:03.121Z,43.50
2022-11-20T01:09:31.012Z,45.00
2022-11-20T01:12:00.113Z,42.00
2022-11-20T01:14:28.085Z,45.30
2022-11-20T01:16:56.853Z,41.80
2022-11-20T01:19:26.124Z,47.70
2022-11-20T01:21:55.644Z,46.40
2022-11-20T01:24:24.322Z,45.60
2022-11-20T01:26:53.136Z,47.80
2022-11-20T01:29:25.404Z,42.90
2022-11-20T01:31:54.249Z,42.00
2022-11-20T01:34:23.615Z,39.90
2022-11-20T01:36:54.280Z,40.90
2022-11-20T01:42:11.912Z,37.50
2022-11-20T01:44:55.209Z,39.50
2022-11-20T01:47:31.446Z,40.80
2022-11-20T01:50:19.765Z,46.40
2022-11-20T01:52:52.644Z,45.50
2022-11-20T01:55:26.823Z,45.20
2022-11-20T01:57:55.671Z,46.00
2022-11-20T02:00:23.830Z,46.40
2022-11-20T02:02:59.655Z,46.70
2022-11-20T02:05:42.885Z,43.70
2022-11-20T02:08:10.884Z,46.70
2022-11-20T02:10:38.897Z,47.60
2022-11-20T02:13:25.260Z,41.20
2022-11-20T02:15:53.481Z,42.00
2022-11-20T02:18:22.520Z,42.60
2022-11-20T02:20:56.174Z,41.80
2022-11-20T02:23:40.464Z,44.30
2022-11-20T02:26:11.847Z,46.30
2022-11-20T02:28:40.213Z,44.30
2022-11-20T02:31:08.707Z,44.00
2022-11-20T02:33:36.556Z,37.70
2022-11-20T02:36:04.565Z,38.30
2022-11-20T02:38:32.708Z,38.80
2022-11-20T02:41:00.730Z,33.70
2022-11-20T02:43:28.539Z,38.70
2022-11-20T02:45:56.384Z,33.40
2022-11-20T02:48:25.344Z,39.50
2022-11-20T02:50:53.285Z,39.10
2022-11-20T02:53:20.985Z,38.70
2022-11-20T02:55:48.821Z,37.60
2022-11-20T02:58:16.637Z,40.20
2022-11-20T03:00:44.338Z,41.90
2022-11-20T03:03:12.524Z,40.30
2022-11-20T03:05:40.358Z,38.60
2022-11-20T03:08:08.090Z,36.90
2022-11-20T03:10:35.933Z,35.50
2022-11-20T03:13:03.781Z,32.60
2022-11-20T03:15:31.497Z,33.30
2022-11-20T03:17:59.453Z,37.90
2022-11-20T03:20:27.705Z,36.20
2022-11-20T03:22:56.172Z,37.30
2022-11-20T03:25:24.272Z,38.30
2022-11-20T03:27:52.452Z,39.20
2022-11-20T03:30:20.129Z,36.90
2022-11-20T03:32:48.688Z,33.60
2022-11-20T03:35:16.613Z,35.80
2022-11-20T03:37:44.370Z,31.50
2022-11-20T03:40:12.775Z,33.50
2022-11-20T03:42:46.645Z,32.90
2022-11-20T03:45:18.665Z,32.50
2022-11-20T03:47:46.554Z,39.20
2022-11-20T03:50:14.914Z,38.30
2022-11-20T03:52:43.433Z,39.50
2022-11-20T03:55:11.379Z,34.90
2022-11-20T03:57:39.082Z,34.00
2022-11-20T04:00:07.570Z,33.00
2022-11-20T04:02:35.542Z,34.20
2022-11-20T04:05:03.343Z,32.90
2022-11-20T04:07:31.147Z,31.80
2022-11-20T04:09:59.028Z,33.10
2022-11-20T04:12:26.701Z,35.30
2022-11-20T04:14:54.696Z,34.40
2022-11-20T04:17:22.489Z,35.00
2022-11-20T04:19:50.312Z,32.20
2022-11-20T04:22:18.187Z,30.40
2022-11-20T04:24:46.126Z,31.20
2022-11-20T04:27:13.822Z,28.60
2022-11-20T04:29:41.832Z,28.10
2022-11-20T04:32:09.757Z,29.90
2022-11-20T04:34:37.514Z,28.60
2022-11-20T04:37:05.348Z,31.80
2022-11-20T04:39:33.232Z,29.50
2022-11-20T04:42:20.092Z,32.10
2022-11-20T04:44:48.002Z,31.60
2022-11-20T04:47:15.732Z,35.40
2022-11-20T04:49:43.439Z,35.90
2022-11-20T04:52:11.574Z,37.00
2022-11-20T04:54:39.833Z,27.40
2022-11-20T04:57:11.438Z,31.40
2022-11-20T04:59:42.423Z,34.00
2022-11-20T05:02:11.635Z,34.10
2022-11-20T05:04:39.393Z,35.10
2022-11-20T05:07:07.225Z,30.50
2022-11-20T05:09:35.311Z,38.40
2022-11-20T05:12:03.412Z,29.30
2022-11-20T05:14:31.530Z,31.70
2022-11-20T05:16:59.565Z,30.00
2022-11-20T05:19:27.410Z,30.70
2022-11-20T05:21:55.374Z,33.50
2022-11-20T05:24:23.225Z,33.20
2022-11-20T05:26:51.025Z,33.50
2022-11-20T05:29:19.309Z,30.30
2022-11-20T05:31:47.234Z,31.60
2022-11-20T05:34:14.993Z,32.70
2022-11-20T05:36:42.960Z,32.00
2022-11-20T05:39:10.733Z,32.70
2022-11-20T05:41:38.443Z,35.30
2022-11-20T05:44:06.550Z,36.90
2022-11-20T05:46:34.414Z,35.40
2022-11-20T05:49:02.156Z,36.00
2022-11-20T05:51:29.970Z,34.90
2022-11-20T05:53:59.522Z,41.10
2022-11-20T05:56:27.235Z,39.00
2022-11-20T05:58:55.386Z,40.10
2022-11-20T06:01:25.694Z,37.90
2022-11-20T06:03:54.590Z,41.20
2022-11-20T06:06:23.492Z,42.20
2022-11-20T06:08:51.256Z,44.20
2022-11-20T06:11:19.647Z,39.90
2022-11-20T06:13:48.232Z,39.10
2022-11-20T06:16:18.882Z,44.30
2022-11-20T06:18:47.585Z,38.80
2022-11-20T06:21:21.553Z,43.50
2022-11-20T06:23:50.937Z,43.00
2022-11-20T06:26:21.584Z,44.30
2022-11-20T06:28:49.726Z,47.80
2022-11-20T06:31:20.080Z,45.90
2022-11-20T06:33:49.130Z,43.80
2022-11-20T06:36:19.680Z,43.40
2022-11-20T06:38:47.512Z,46.00
2022-11-20T06:41:21.394Z,49.70
2022-11-20T06:43:49.877Z,54.00
2022-11-20T06:46:19.220Z,44.50
2022-11-20T06:48:48.094Z,48.90
2022-11-20T06:51:16.234Z,43.20
2022-11-20T06:53:44.423Z,43.10
2022-11-20T06:56:12.209Z,41.10
2022-11-20T06:58:39.907Z,47.70
2022-11-20T07:01:11.213Z,42.40
2022-11-20T07:03:39.405Z,42.70
2022-11-20T07:06:07.494Z,40.20
2022-11-20T07:08:36.026Z,43.00
2022-11-20T07:11:07.041Z,41.50
2022-11-20T07:13:35.405Z,47.70
2022-11-20T07:16:05.810Z,46.60
2022-11-20T07:18:34.170Z,41.30
2022-11-20T07:21:07.954Z,46.70
2022-11-20T07:23:36.298Z,43.90
2022-11-20T07:26:08.933Z,47.50
2022-11-20T07:28:38.231Z,47.70
2022-11-20T07:31:07.866Z,45.20
2022-11-20T07:33:35.923Z,46.50
2022-11-20T07:36:04.346Z,45.40
2022-11-20T07:38:32.022Z,49.30
2022-11-20T07:41:02.577Z,51.10
2022-11-20T07:43:31.242Z,53.10
2022-11-20T07:46:00.597Z,51.70
2022-11-20T07:48:28.299Z,44.10
2022-11-20T07:50:59.329Z,45.40
2022-11-20T07:53:26.999Z,46.20
2022-11-20T07:55:54.921Z,46.30
2022-11-20T07:58:23.425Z,50.00
2022-11-20T08:00:51.401Z,43.90
2022-11-20T08:03:24.374Z,46.90
2022-11-20T08:05:52.807Z,46.40
2022-11-20T08:08:21.100Z,43.40
2022-11-20T08:10:48.785Z,41.40
2022-11-20T08:13:35.248Z,39.50
2022-11-20T08:16:03.080Z,44.40
2022-11-20T08:18:32.700Z,41.70
2022-11-20T08:21:05.230Z,35.00
2022-11-20T08:23:33.391Z,37.00
2022-11-20T08:26:01.066Z,34.30
2022-11-20T08:28:28.831Z,39.00
2022-11-20T08:31:01.491Z,35.70
2022-11-20T08:33:30.054Z,36.00
2022-11-20T08:36:02.386Z,35.10
2022-11-20T08:38:31.028Z,36.00
2022-11-20T08:41:18.686Z,34.40
2022-11-20T08:43:47.251Z,34.50
2022-11-20T08:46:15.400Z,33.80
2022-11-20T08:48:43.458Z,34.00
2022-11-20T08:51:12.421Z,37.90
2022-11-20T08:53:41.788Z,36.80
2022-11-20T08:56:10.746Z,37.70
2022-11-20T08:59:09.762Z,36.30
2022-11-20T09:01:30.127Z,38.00
2022-11-20T09:03:58.287Z,37.20
2022-11-20T09:06:26.880Z,37.20
2022-11-20T09:08:55.659Z,36.30
2022-11-20T09:11:23.970Z,35.10
2022-11-20T09:13:51.779Z,36.30
2022-11-20T09:16:19.908Z,33.50
2022-11-20T09:18:53.927Z,31.60
2022-11-20T09:21:30.064Z,36.80
2022-11-20T09:23:57.808Z,35.70
2022-11-20T09:26:25.489Z,33.70
2022-11-20T09:28:56.964Z,32.30
2022-11-20T09:31:27.249Z,29.30
2022-11-20T09:33:55.529Z,29.70
2022-11-20T09:36:23.300Z,31.80
2022-11-20T09:38:51.210Z,32.60
2022-11-20T09:41:50.792Z,30.30
2022-11-20T09:47:21.201Z,29.80
2022-11-20T09:50:06.239Z,27.00
2022-11-20T09:53:04.000Z,32.30
2022-11-20T09:55:32.197Z,27.70
2022-11-20T09:58:00.612Z,27.70
2022-11-20T10:00:30.510Z,28.10
2022-11-20T10:03:15.868Z,29.20
2022-11-20T10:05:47.432Z,32.90
2022-11-20T10:08:18.286Z,29.80
2022-11-20T10:10:52.616Z,28.20
2022-11-20T10:13:48.199Z,28.00
2022-11-20T10:16:41.009Z,31.70
2022-11-20T10:19:22.111Z,29.70
2022-11-20T10:22:13.969Z,29.30
2022-11-20T10:24:58.334Z,30.50
2022-11-20T10:27:48.209Z,30.30
2022-11-20T10:30:21.259Z,26.50
2022-11-20T10:32:59.584Z,25.60
2022-11-20T10:35:37.409Z,28.90
2022-11-20T10:38:13.924Z,28.00
2022-11-20T10:40:44.254Z,31.00
2022-11-20T10:43:20.235Z,35.00
2022-11-20T10:46:13.643Z,27.70
2022-11-20T10:48:44.975Z,28.20
2022-11-20T10:51:43.707Z,27.90
2022-11-20T10:54:44.437Z,27.70
2022-11-20T10:57:41.376Z,29.80
2022-11-20T11:00:13.413Z,26.20
2022-11-20T11:02:48.804Z,28.60
2022-11-20T11:05:42.057Z,26.90
2022-11-20T11:08:20.696Z,26.10
2022-11-20T11:10:51.568Z,27.90
2022-11-20T11:13:27.648Z,23.80
2022-11-20T11:15:56.606Z,25.80
2022-11-20T11:18:25.849Z,22.00
2022-11-20T11:20:55.728Z,22.30
2022-11-20T11:23:31.621Z,22.00
2022-11-20T11:26:01.990Z,20.60
2022-11-20T11:28:30.036Z,19.30
2022-11-20T11:30:57.991Z,21.00
2022-11-20T11:33:28.169Z,16.90
2022-11-20T11:35:59.538Z,21.10
2022-11-20T11:38:35.848Z,20.80
2022-11-20T11:41:05.378Z,22.70
2022-11-20T11:46:33.608Z,18.90
2022-11-20T11:49:23.254Z,25.20
2022-11-20T11:52:10.081Z,18.90
2022-11-20T11:54:58.741Z,20.10
2022-11-20T11:57:50.941Z,22.80
2022-11-20T12:00:23.548Z,22.40
2022-11-20T12:03:16.284Z,22.60
2022-11-20T12:05:52.159Z,21.20
2022-11-20T12:08:45.986Z,19.50
2022-11-20T12:11:17.170Z,21.80
2022-11-20T12:13:55.361Z,21.80
2022-11-20T12:16:23.969Z,22.80
2022-11-20T12:18:53.617Z,22.70
2022-11-20T12:21:24.858Z,21.50
2022-11-20T12:24:43.089Z,21.30
2022-11-20T12:27:29.694Z,21.90
2022-11-20T12:30:14.893Z,19.10
2022-11-20T12:33:03.461Z,21.50
2022-11-20T12:36:09.002Z,18.30
2022-11-20T12:39:03.594Z,22.90
2022-11-20T12:42:14.380Z,19.10
2022-11-20T12:45:12.944Z,19.60
2022-11-20T12:48:17.578Z,21.50
2022-11-20T12:51:13.824Z,21.30
2022-11-20T12:53:51.655Z,20.20
2022-11-20T12:57:02.331Z,21.10
2022-11-20T12:59:59.389Z,20.30
2022-11-20T13:02:36.669Z,23.50
2022-11-20T13:05:13.752Z,21.40
2022-11-20T13:07:44.245Z,21.70
2022-11-20T13:10:22.999Z,20.80
2022-11-20T13:13:02.612Z,20.50
2022-11-20T13:15:56.212Z,22.30
2022-11-20T13:18:24.553Z,20.30
2022-11-20T13:20:53.071Z,19.70
2022-11-20T13:23:26.188Z,20.20
2022-11-20T13:26:21.467Z,19.10
2022-11-20T13:29:12.040Z,20.00
2022-11-20T13:31:44.801Z,17.80
2022-11-20T13:34:26.881Z,20.40
2022-11-20T13:36:57.114Z,18.50
2022-11-20T13:39:31.298Z,18.90
2022-11-20T13:42:19.823Z,18.80
2022-11-20T13:45:02.648Z,18.60
2022-11-20T13:47:30.620Z,19.90
2022-11-20T13:50:00.323Z,17.50
2022-11-20T13:52:37.168Z,17.70
2022-11-20T13:55:26.570Z,19.20
2022-11-20T14:00:28.052Z,18.20
2022-11-20T14:03:18.346Z,17.60
2022-11-20T14:06:01.857Z,17.90
2022-11-20T14:08:51.758Z,19.10
2022-11-20T14:11:22.299Z,23.40
2022-11-20T14:14:04.143Z,19.90
2022-11-20T14:16:35.079Z,18.70
2022-11-20T14:19:21.868Z,17.00
2022-11-20T14:21:53.362Z,16.50
2022-11-20T14:24:24.037Z,17.10
2022-11-20T14:26:53.242Z,20.60
2022-11-20T14:29:28.027Z,24.30
2022-11-20T14:31:57.846Z,21.10
2022-11-20T14:34:28.865Z,22.00
2022-11-20T14:37:02.728Z,20.40
2022-11-20T14:39:35.623Z,21.70
2022-11-20T14:42:15.544Z,23.50
2022-11-20T14:44:44.210Z,22.70
2022-11-20T14:47:14.161Z,24.50
2022-11-20T14:49:42.560Z,24.80
2022-11-20T14:52:22.088Z,22.50
2022-11-20T14:57:35.006Z,22.80
2022-11-20T15:00:24.495Z,23.40
2022-11-20T15:02:53.177Z,22.20
2022-11-20T15:05:24.555Z,26.90
2022-11-20T15:08:06.928Z,27.90
2022-11-20T15:10:35.557Z,27.50
2022-11-20T15:13:13.522Z,25.20
2022-11-20T15:15:44.523Z,24.20
2022-11-20T15:18:18.717Z,29.60
2022-11-20T15:20:47.049Z,27.70
2022-11-20T15:23:20.119Z,26.30
2022-11-20T15:25:49.524Z,25.70
2022-11-20T15:28:20.995Z,25.60
2022-11-20T15:30:50.422Z,29.00
2022-11-20T15:33:18.709Z,39.30
2022-11-20T15:35:46.609Z,43.20
2022-11-20T15:38:14.600Z,43.00
2022-11-20T15:40:42.601Z,38.20
2022-11-20T15:43:13.594Z,41.80
2022-11-20T15:45:53.980Z,36.40
2022-11-20T15:48:48.196Z,46.30
2022-11-20T15:51:28.199Z,43.90
2022-11-20T15:56:25.118Z,37.20
2022-11-20T15:58:53.173Z,36.60
2022-11-20T16:01:23.094Z,33.20
2022-11-20T16:03:50.993Z,34.30
2022-11-20T16:06:18.794Z,31.70
2022-11-20T16:08:47.113Z,31.50
2022-11-20T16:11:17.117Z,33.30
2022-11-20T16:14:03.708Z,31.20
2022-11-20T16:16:34.291Z,29.40
2022-11-20T16:19:02.017Z,32.20
2022-11-20T16:21:33.150Z,29.90
2022-11-20T16:24:06.478Z,34.60
2022-11-20T16:26:34.678Z,33.80
2022-11-20T16:29:04.253Z,33.90
2022-11-20T16:31:32.561Z,34.70
2022-11-20T16:34:05.885Z,32.80
2022-11-20T16:36:41.035Z,34.30
2022-11-20T16:39:08.799Z,31.80
2022-11-20T16:41:37.337Z,36.00
2022-11-20T16:44:11.068Z,33.60
2022-11-20T16:46:40.786Z,31.80
2022-11-20T16:49:13.594Z,35.20
2022-11-20T16:51:41.796Z,33.80
2022-11-20T16:54:10.745Z,38.20
2022-11-20T16:56:39.506Z,39.10
2022-11-20T16:59:07.536Z,38.80
2022-11-20T17:01:38.724Z,37.00
2022-11-20T17:04:07.496Z,37.40
2022-11-20T17:06:39.015Z,34.50
2022-11-20T17:09:09.721Z,33.00
2022-11-20T17:11:37.905Z,34.90
2022-11-20T17:14:09.244Z,37.00
2022-11-20T17:16:38.178Z,37.10
2022-11-20T17:19:06.131Z,37.10
2022-11-20T17:21:38.149Z,36.20
2022-11-20T17:24:11.233Z,37.70
2022-11-20T17:26:41.292Z,37.60
2022-11-20T17:29:13.080Z,39.30
2022-11-20T17:31:42.048Z,43.80
2022-11-20T17:34:15.387Z,46.70
2022-11-20T17:36:45.801Z,46.50
2022-11-20T17:39:15.165Z,41.80
2022-11-20T17:41:44.362Z,42.40
2022-11-20T17:44:14.242Z,40.20
2022-11-20T17:46:41.989Z,43.80
2022-11-20T17:49:09.668Z,49.00
2022-11-20T17:51:37.613Z,54.50
2022-11-20T17:54:07.578Z,109.20
2022-11-20T17:56:54.644Z,44.50
2022-11-20T17:59:22.822Z,33.40
2022-11-20T18:01:50.601Z,39.70
2022-11-20T18:04:18.331Z,34.50
2022-11-20T18:06:46.392Z,37.00
2022-11-20T18:09:14.105Z,35.60
2022-11-20T18:11:43.297Z,33.60
2022-11-20T18:14:29.210Z,36.90
2022-11-20T18:17:02.291Z,39.40
2022-11-20T18:19:33.456Z,36.30
2022-11-20T18:22:04.304Z,39.50
2022-11-20T18:24:33.507Z,42.20
2022-11-20T18:27:02.057Z,39.90
2022-11-20T18:29:31.191Z,35.60
2022-11-20T18:31:59.890Z,39.50
2022-11-20T18:34:27.734Z,36.80
2022-11-20T18:36:55.588Z,36.90
2022-11-20T18:39:24.175Z,166.20
2022-11-20T18:42:10.642Z,36.70
2022-11-20T18:44:56.810Z,37.40
2022-11-20T18:47:28.491Z,40.10
2022-11-20T18:50:00.015Z,36.40
2022-11-20T18:52:37.844Z,35.70
2022-11-20T18:55:06.689Z,37.80
2022-11-20T18:57:34.820Z,43.00
2022-11-20T19:00:08.850Z,40.20
2022-11-20T19:05:25.824Z,46.90
2022-11-20T19:07:53.869Z,46.90
2022-11-20T19:10:24.353Z,43.20
2022-11-20T19:12:52.221Z,45.30
2022-11-20T19:15:20.348Z,47.00
2022-11-20T19:17:48.108Z,42.70
2022-11-20T19:20:16.035Z,43.00
2022-11-20T19:22:45.838Z,44.30
2022-11-20T19:27:41.251Z,50.30
2022-11-20T19:30:10.214Z,53.40
2022-11-20T19:32:38.187Z,53.70
2022-11-20T19:35:06.695Z,53.50
2022-11-20T19:37:35.229Z,50.00
2022-11-20T19:40:04.774Z,45.90
2022-11-20T19:42:32.662Z,44.80
2022-11-20T19:45:00.563Z,45.50
2022-11-20T19:47:46.379Z,46.10
2022-11-20T19:50:16.883Z,48.40
2022-11-20T19:52:44.673Z,49.80
2022-11-20T19:55:12.416Z,52.20
2022-11-20T19:57:40.341Z,53.10
2022-11-20T20:00:08.712Z,53.30
2022-11-20T20:02:36.471Z,53.50
2022-11-20T20:05:04.803Z,49.40
2022-11-20T20:07:32.497Z,50.40
2022-11-20T20:10:00.262Z,43.90
2022-11-20T20:12:28.171Z,46.40
2022-11-20T20:14:55.823Z,49.60
2022-11-20T20:17:23.519Z,58.80
2022-11-20T20:19:51.487Z,60.00
2022-11-20T20:22:19.172Z,72.40
2022-11-20T20:24:46.920Z,69.10
2022-11-20T20:27:14.960Z,62.10
2022-11-20T20:29:42.750Z,62.20
2022-11-20T20:32:10.516Z,54.60
2022-11-20T20:34:38.941Z,51.50
2022-11-20T20:37:06.599Z,52.20
2022-11-20T20:39:34.254Z,52.00
2022-11-20T20:42:02.346Z,56.00
2022-11-20T20:44:48.600Z,48.30
2022-11-20T20:47:16.481Z,50.90
2022-11-20T20:49:44.198Z,52.80
2022-11-20T20:52:11.884Z,50.70
2022-11-20T20:54:42.269Z,47.90
2022-11-20T20:57:09.935Z,50.10
2022-11-20T20:59:38.113Z,46.80
2022-11-20T21:02:06.087Z,52.80
2022-11-20T21:04:34.016Z,55.10
2022-11-20T21:07:01.740Z,55.80
2022-11-20T21:09:29.816Z,56.30
2022-11-20T21:11:57.595Z,60.90
2022-11-20T21:14:25.599Z,61.80
2022-11-20T21:16:53.875Z,54.10
2022-11-20T21:19:21.632Z,60.10
2022-11-20T21:22:03.457Z,52.70
2022-11-20T21:24:34.014Z,52.20
2022-11-20T21:27:03.995Z,53.70
2022-11-20T21:29:32.526Z,51.20
2022-11-20T21:32:00.412Z,53.60
2022-11-20T21:34:28.182Z,49.20
2022-11-20T21:36:56.190Z,53.30
2022-11-20T21:39:24.040Z,55.00
2022-11-20T21:41:51.699Z,53.50
2022-11-20T21:44:35.339Z,47.00
2022-11-20T21:47:03.099Z,50.70
2022-11-20T21:49:31.274Z,47.90
2022-11-20T21:51:59.106Z,52.40
2022-11-20T21:54:27.035Z,52.20
2022-11-20T21:56:55.223Z,49.00
2022-11-20T21:59:23.578Z,46.00
2022-11-20T22:01:51.361Z,50.00
2022-11-20T22:04:20.216Z,49.60
2022-11-20T22:06:48.778Z,48.00
2022-11-20T22:09:16.777Z,46.70
2022-11-20T22:11:45.327Z,49.70
2022-11-20T22:14:22.047Z,52.50
2022-11-20T22:16:52.315Z,51.80
2022-11-20T22:19:21.349Z,50.30
2022-11-20T22:21:52.478Z,50.30
2022-11-20T22:24:22.444Z,45.10
2022-11-20T22:26:50.531Z,50.00
2022-11-20T22:29:21.010Z,50.50
2022-11-20T22:31:52.303Z,50.80
2022-11-20T22:34:20.256Z,53.30
2022-11-20T22:36:48.205Z,49.20
2022-11-20T22:39:16.546Z,53.80
2022-11-20T22:41:44.267Z,56.90
2022-11-20T22:44:15.959Z,57.60
2022-11-20T22:46:44.139Z,53.40
2022-11-20T22:49:11.837Z,46.20
2022-11-20T22:51:41.324Z,53.10
2022-11-20T22:54:12.186Z,47.00
2022-11-20T22:56:40.859Z,49.60
2022-11-20T22:59:08.805Z,45.70
2022-11-20T23:01:37.737Z,46.70
2022-11-20T23:04:09.112Z,44.10
2022-11-20T23:06:37.458Z,49.40
2022-11-20T23:09:06.730Z,51.70
2022-11-20T23:11:35.628Z,48.20
2022-11-20T23:14:12.284Z,54.00
2022-11-20T23:16:40.315Z,53.10
2022-11-20T23:19:10.769Z,55.80
2022-11-20T23:21:41.478Z,59.10
2022-11-20T23:24:10.696Z,58.50
2022-11-20T23:26:40.550Z,60.20
2022-11-20T23:29:09.005Z,64.90
2022-11-20T23:31:37.169Z,69.40
2022-11-20T23:34:04.955Z,67.80
2022-11-20T23:36:33.219Z,61.30
2022-11-20T23:39:01.116Z,71.40
2022-11-20T23:41:29.020Z,63.40
2022-11-20T23:43:56.922Z,60.70
2022-11-20T23:46:24.785Z,56.90
2022-11-20T23:48:52.691Z,59.70
2022-11-20T23:51:20.682Z,61.20
2022-11-20T23:53:48.494Z,67.20
2022-11-20T23:56:16.393Z,58.20
2022-11-20T23:58:44.283Z,58.40
